createdAt,value
2022-09-03T00:00:05.274Z,1.80
2022-09-03T00:05:40.542Z,1.30
2022-09-03T00:10:53.004Z,1.27
2022-09-03T00:16:01.208Z,1.40
2022-09-03T00:21:10.598Z,1.30
2022-09-03T00:26:25.955Z,1.45
2022-09-03T00:31:39.255Z,1.58
2022-09-03T00:36:46.376Z,1.38
2022-09-03T00:42:07.193Z,1.42
2022-09-03T00:47:18.603Z,1.13
2022-09-03T00:52:35.500Z,1.27
2022-09-03T00:57:48.548Z,1.35
2022-09-03T01:03:03.339Z,1.23
2022-09-03T01:08:21.213Z,1.15
2022-09-03T01:13:32.422Z,0.95
2022-09-03T01:18:46.765Z,1.02
2022-09-03T01:24:30.239Z,1.45
2022-09-03T01:29:41.111Z,1.10
2022-09-03T01:34:54.596Z,1.08
2022-09-03T01:40:07.949Z,1.30
2022-09-03T01:45:50.180Z,1.33
2022-09-03T01:51:00.472Z,1.30
2022-09-03T01:56:17.030Z,1.10
2022-09-03T02:01:26.805Z,1.33
2022-09-03T02:06:33.075Z,2.10
2022-09-03T02:11:40.166Z,1.52
2022-09-03T02:16:47.271Z,1.80
2022-09-03T02:21:55.521Z,2.10
2022-09-03T02:27:01.361Z,1.43
2022-09-03T02:32:08.344Z,1.70
2022-09-03T02:37:18.586Z,1.42
2022-09-03T02:42:24.215Z,1.60
2022-09-03T02:47:33.701Z,1.50
2022-09-03T02:52:38.958Z,1.67
2022-09-03T02:57:45.576Z,1.70
2022-09-03T03:02:52.883Z,1.85
2022-09-03T03:07:58.724Z,1.83
2022-09-03T03:13:04.081Z,1.70
2022-09-03T03:18:12.321Z,1.40
2022-09-03T03:23:17.980Z,1.30
2022-09-03T03:28:23.605Z,2.08
2022-09-03T03:33:30.541Z,2.00
2022-09-03T03:38:36.360Z,2.05
2022-09-03T03:43:41.953Z,1.70
2022-09-03T03:48:49.678Z,2.03
2022-09-03T03:53:57.213Z,1.40
2022-09-03T03:59:02.812Z,1.40
2022-09-03T04:04:09.947Z,1.38
2022-09-03T04:09:15.777Z,1.63
2022-09-03T04:14:22.885Z,1.20
2022-09-03T04:19:30.523Z,1.45
2022-09-03T04:24:36.272Z,1.55
2022-09-03T04:29:41.810Z,2.08
2022-09-03T04:34:49.004Z,2.13
2022-09-03T04:39:54.780Z,1.90
2022-09-03T04:45:00.398Z,2.30
2022-09-03T04:50:08.121Z,2.00
2022-09-03T04:55:14.277Z,1.55
2022-09-03T05:00:20.739Z,1.70
2022-09-03T05:05:27.772Z,1.60
2022-09-03T05:10:33.653Z,1.42
2022-09-03T05:15:39.124Z,1.77
2022-09-03T05:20:47.029Z,1.75
2022-09-03T05:25:58.652Z,1.60
2022-09-03T05:31:06.529Z,2.05
2022-09-03T05:36:16.164Z,1.23
2022-09-03T05:41:22.172Z,1.48
2022-09-03T05:46:32.163Z,1.52
2022-09-03T05:51:40.893Z,1.85
2022-09-03T05:56:46.491Z,1.30
2022-09-03T06:01:54.636Z,1.60
2022-09-03T06:07:05.189Z,1.45
2022-09-03T06:12:10.742Z,1.13
2022-09-03T06:17:16.979Z,1.10
2022-09-03T06:22:25.793Z,1.40
2022-09-03T06:27:32.895Z,1.10
2022-09-03T06:32:45.996Z,1.10
2022-09-03T06:37:53.039Z,1.20
2022-09-03T06:43:03.617Z,1.40
2022-09-03T06:48:09.525Z,1.10
2022-09-03T06:53:16.957Z,1.20
2022-09-03T06:58:23.722Z,0.90
2022-09-03T07:03:30.416Z,1.45
2022-09-03T07:08:38.129Z,1.25
2022-09-03T07:13:45.269Z,1.20
2022-09-03T07:18:53.450Z,1.00
2022-09-03T07:24:01.215Z,0.90
2022-09-03T07:29:08.077Z,1.00
2022-09-03T07:34:15.365Z,0.80
2022-09-03T07:39:22.612Z,0.70
2022-09-03T07:44:30.001Z,0.70
2022-09-03T07:49:36.954Z,1.40
2022-09-03T07:54:45.195Z,1.13
2022-09-03T07:59:50.892Z,0.83
2022-09-03T08:04:57.206Z,0.98
2022-09-03T08:10:05.040Z,0.80
2022-09-03T08:15:11.673Z,0.53
2022-09-03T08:20:18.255Z,0.80
2022-09-03T08:25:25.468Z,0.90
2022-09-03T08:30:31.351Z,0.90
2022-09-03T08:35:38.485Z,0.88
2022-09-03T08:40:46.420Z,0.82
2022-09-03T08:45:52.256Z,1.10
2022-09-03T08:51:00.354Z,0.70
2022-09-03T08:56:12.672Z,0.53
2022-09-03T09:01:31.925Z,0.90
2022-09-03T09:06:43.583Z,0.70
2022-09-03T09:11:59.926Z,0.90
2022-09-03T09:17:17.187Z,0.80
2022-09-03T09:22:29.061Z,0.50
2022-09-03T09:27:36.231Z,0.68
2022-09-03T09:32:42.206Z,0.60
2022-09-03T09:37:52.490Z,0.80
2022-09-03T09:43:07.877Z,0.40
2022-09-03T09:48:22.025Z,0.60
2022-09-03T09:53:30.474Z,0.40
2022-09-03T09:58:37.935Z,0.70
2022-09-03T10:03:50.811Z,0.60
2022-09-03T10:09:08.428Z,0.60
2022-09-03T10:14:20.790Z,0.50
2022-09-03T10:19:34.966Z,0.50
2022-09-03T10:24:49.453Z,0.60
2022-09-03T10:29:56.914Z,0.50
2022-09-03T10:35:10.577Z,0.40
2022-09-03T10:40:32.431Z,0.73
2022-09-03T10:45:44.050Z,1.50
2022-09-03T10:50:51.257Z,0.60
2022-09-03T10:56:02.790Z,0.50
2022-09-03T11:01:16.907Z,0.60
2022-09-03T11:06:26.431Z,0.60
2022-09-03T11:11:35.468Z,0.40
2022-09-03T11:16:47.481Z,0.40
2022-09-03T11:21:54.326Z,0.57
2022-09-03T11:27:17.110Z,0.30
2022-09-03T11:32:27.636Z,0.73
2022-09-03T11:37:33.534Z,0.50
2022-09-03T11:42:41.839Z,0.80
2022-09-03T11:47:51.529Z,0.52
2022-09-03T11:53:10.965Z,0.40
2022-09-03T11:58:24.726Z,0.60
2022-09-03T12:03:40.979Z,1.00
2022-09-03T12:09:18.328Z,0.57
2022-09-03T12:14:29.925Z,0.60
2022-09-03T12:19:44.239Z,1.15
2022-09-03T12:24:52.323Z,0.65
2022-09-03T12:30:01.062Z,1.00
2022-09-03T12:46:17.917Z,2.35
2022-09-03T12:56:56.232Z,1.00
2022-09-03T13:02:05.974Z,1.23
2022-09-03T13:07:21.586Z,0.70
2022-09-03T13:12:33.764Z,1.33
2022-09-03T13:17:59.372Z,1.00
2022-09-03T13:23:28.046Z,1.00
2022-09-03T13:28:42.183Z,1.00
2022-09-03T13:33:52.162Z,3.53
2022-09-03T13:39:06.296Z,1.45
2022-09-03T13:44:16.250Z,1.05
2022-09-03T13:50:02.676Z,2.22
2022-09-03T13:55:16.489Z,0.80
2022-09-03T14:00:27.528Z,6.43
2022-09-03T14:05:49.261Z,1.15
2022-09-03T14:11:02.967Z,2.38
2022-09-03T14:16:10.507Z,1.00
2022-09-03T14:21:21.103Z,1.10
2022-09-03T14:26:39.040Z,0.90
2022-09-03T14:32:27.440Z,1.10
2022-09-03T14:37:48.773Z,1.25
2022-09-03T14:43:17.472Z,1.30
2022-09-03T14:48:37.873Z,1.10
2022-09-03T14:54:12.568Z,1.15
2022-09-03T14:59:41.050Z,1.00
2022-09-03T15:04:57.431Z,0.93
2022-09-03T15:10:12.456Z,1.00
2022-09-03T15:15:22.948Z,0.98
2022-09-03T15:20:44.518Z,0.90
2022-09-03T15:26:05.015Z,1.20
2022-09-03T15:31:17.816Z,1.05
2022-09-03T15:36:25.779Z,1.50
2022-09-03T15:41:40.284Z,1.48
2022-09-03T15:46:58.189Z,0.95
2022-09-03T15:52:38.553Z,1.30
2022-09-03T15:57:52.355Z,1.55
2022-09-03T16:03:11.286Z,1.27
2022-09-03T16:08:22.687Z,1.10
2022-09-03T16:13:49.902Z,0.93
2022-09-03T16:19:06.318Z,2.80
2022-09-03T16:24:18.882Z,2.10
2022-09-03T16:29:28.790Z,1.85
2022-09-03T16:34:45.335Z,1.40
2022-09-03T16:39:57.430Z,1.25
2022-09-03T16:45:15.133Z,1.60
2022-09-03T16:50:32.284Z,1.40
2022-09-03T16:55:59.484Z,1.40
2022-09-03T17:01:15.644Z,1.23
2022-09-03T17:06:37.669Z,1.20
2022-09-03T17:11:52.788Z,1.48
2022-09-03T17:17:06.989Z,1.80
2022-09-03T17:22:25.115Z,2.38
2022-09-03T17:27:48.821Z,2.30
2022-09-03T17:33:35.435Z,4.32
2022-09-03T17:39:10.268Z,4.03
2022-09-03T17:44:21.995Z,4.70
2022-09-03T17:49:30.959Z,5.50
2022-09-03T17:54:43.056Z,4.25
2022-09-03T17:59:54.332Z,4.38
2022-09-03T18:05:06.361Z,4.22
2022-09-03T18:10:25.285Z,4.43
2022-09-03T18:15:36.829Z,3.90
2022-09-03T18:21:22.234Z,3.90
2022-09-03T18:26:51.299Z,5.22
2022-09-03T18:32:14.741Z,8.27
2022-09-03T18:37:42.940Z,9.00
2022-09-03T18:43:16.528Z,9.48
2022-09-03T18:48:46.821Z,9.27
2022-09-03T18:54:19.377Z,11.15
2022-09-03T19:00:04.502Z,10.63
2022-09-03T19:05:36.877Z,10.15
2022-09-03T19:11:09.352Z,10.63
2022-09-03T19:16:45.900Z,10.70
2022-09-03T19:22:19.210Z,11.10
2022-09-03T19:28:05.454Z,13.55
2022-09-03T19:34:32.099Z,14.23
2022-09-03T19:40:07.990Z,17.63
2022-09-03T19:46:21.978Z,15.70
2022-09-03T19:51:52.863Z,15.68
2022-09-03T19:57:19.389Z,15.20
2022-09-03T20:02:46.182Z,17.33
2022-09-03T20:08:17.062Z,18.63
2022-09-03T20:13:27.551Z,17.73
2022-09-03T20:18:43.285Z,18.60
2022-09-03T20:23:57.388Z,18.20
2022-09-03T20:29:48.556Z,18.65
2022-09-03T20:35:07.339Z,18.35
2022-09-03T20:40:28.964Z,15.90
2022-09-03T20:45:57.102Z,19.05
2022-09-03T20:51:17.231Z,17.25
2022-09-03T20:56:35.725Z,17.98
2022-09-03T21:01:52.812Z,16.75
2022-09-03T21:07:08.599Z,18.02
2022-09-03T21:12:23.454Z,18.83
2022-09-03T21:17:39.520Z,19.13
2022-09-03T21:22:56.557Z,16.85
2022-09-03T21:28:16.751Z,16.00
2022-09-03T21:33:29.969Z,18.02
2022-09-03T21:38:40.554Z,19.02
2022-09-03T21:43:56.098Z,21.73
2022-09-03T21:49:06.243Z,22.27
2022-09-03T21:54:20.379Z,23.42
2022-09-03T22:00:09.676Z,21.80
2022-09-03T22:05:26.345Z,23.98
2022-09-03T22:10:37.506Z,23.52
2022-09-03T22:15:51.871Z,21.75
2022-09-03T22:21:06.328Z,21.67
2022-09-03T22:26:29.269Z,16.75
2022-09-03T22:31:52.881Z,14.90
2022-09-03T22:37:06.904Z,11.32
2022-09-03T22:42:28.197Z,10.15
2022-09-03T22:47:45.520Z,11.43
2022-09-03T22:53:00.975Z,13.20
2022-09-03T22:58:13.290Z,13.63
2022-09-03T23:03:28.617Z,15.48
2022-09-03T23:08:45.181Z,15.35
2022-09-03T23:13:58.029Z,13.60
2022-09-03T23:24:30.761Z,11.90
2022-09-03T23:29:42.365Z,12.27
2022-09-03T23:34:51.391Z,11.25
2022-09-03T23:40:18.849Z,10.73
2022-09-03T23:45:33.033Z,11.43
2022-09-03T23:50:48.475Z,9.32
2022-09-03T23:56:17.133Z,8.18
